AirNav   Air Wisconsin Up To $57,000 Bonus
 
 1225 users online  

01TE Smith Field Airport
Forney, Texas, USA

GOING TO FORNEY?


FAA INFORMATION EFFECTIVE 19 MAY 2022

Location

FAA Identifier: 01TE
Lat/Long: 32-44-15.4650N 096-25-40.9460W
32-44.257750N 096-25.682433W
32.7376292,-96.4280406
(estimated)
Elevation: 505 ft. / 154 m (estimated)
Variation: 06E (1985)
From city: 2 miles SE of FORNEY, TX
Time zone: UTC -5 (UTC -6 during Standard Time)
Zip code: 75126

Airport Operations

Airport use: Private use. Permission required prior to landing
Activation date: 11/1979
Control tower: no
ARTCC: FORT WORTH CENTER
FSS: FORT WORTH FLIGHT SERVICE STATION
Attendance: MON-SAT 0800-1800
Wind indicator: yes
Segmented circle: no

Airport Communications

WX AWOS-3 at HQZ (5 nm W): 118.175 (972-222-7631)
WX ASOS at TRL (8 nm E): 119.275 (972-551-1334)
WX AWOS-3PT at F46 (12 nm N): 121.25 (972-772-6699)
WX AWOS-3PT at LNC (17 nm SW): 118.975 (972-227-0471)
WX AWOS-3 at 49T (19 nm W): 135.425 (214-670-1243)

Nearby radio navigation aids

VOR radial/distance  VOR name  Freq  Var
CVEr105/25.7COWBOY VOR/DME116.2006E
TTTr098/31.9MAVERICK VOR/DME113.1006E
CQYr336/34.8CEDAR CREEK VORTAC114.8006E
FUZr098/39.0RANGER VORTAC115.7006E

 
NDB name  Hdg/Dist  Freq  Var  ID
MESQUITE127/6.724803EPQF .--. --.- ..-.

Airport Services

Parking: tiedowns
Airframe service: MAJOR
Powerplant service: MAJOR
Bottled oxygen: NONE
Bulk oxygen: NONE

Runway Information

Runway 4/22

Dimensions: 2433 x 55 ft. / 742 x 17 m
CULVERT UNDER RY 700' NE RWY 04 THR RESTRICTS RY WIDTH TO 55'.
Surface: turf, in fair condition
RUNWAY 4  RUNWAY 22
Traffic pattern: leftleft
Obstructions: none15 ft. road, 20 ft. from runway, 1:1 slope to clear

Airport Ownership and Management from official FAA records

Ownership: Privately-owned
Owner: JAMES SMITH
108 SOUTH COUNTY RD.
FORNEY, TX 75126
Phone 214-552-9622
Manager: JAMES SMITH
108 SOUTH COUNTY RD.
FORNEY, TX 75126
Phone 214-222-8338

Airport Operational Statistics

Aircraft based on the field: 7
Single engine airplanes: 2
Helicopters: 5
    
Aircraft operations: avg 96/week *
60% local general aviation
40% transient general aviation
* for 12-month period ending 09 January 1990

Additional Remarks

+4' FENCE 100' EAST OF RWY: 675' NE OF RWY 04 THR OBSTRUCTS PRIMARY SFC.
CAUTION: RWY 04/22 SOFT IN WET WEATHER.
FOR CD CTC REGIONAL APCH AT 972-615-2799.

Instrument Procedures

There are no published instrument procedures at 01TE.

Some nearby airports with instrument procedures:

KHQZ - Mesquite Metro Airport (5 nm W)
KTRL - Terrell Municipal Airport (8 nm E)
F46 - Ralph M Hall/Rockwall Municipal Airport (12 nm N)
KLNC - Lancaster Regional Airport (17 nm SW)
7F3 - Caddo Mills Municipal Airport (20 nm NE)
 
Loc | Ops | Rwys | IFR | FBO | Links
Com | Nav | Svcs | Stats | Notes

City of Fort Worth
 
Area around 01TE (Smith Field Airport)
 
Road maps at: MapQuest Bing Google
 
Aerial photo
No photo
 
Sectional chart

 
Airport distance calculator
Flying to Smith Field Airport? Find the distance to fly.

From to 01TE

Sunrise and sunset
Times for 27-May-2022
 Local
(UTC-5)
 Zulu
(UTC)
Morning civil twilight05:5310:53
Sunrise06:2111:21
Sunset20:2401:24
Evening civil twilight20:5201:52

Current date and time
Zulu (UTC)  27-May-2022 22:12:48
Local (UTC-5)  27-May-2022 17:12:48
 
METAR
KHQZ 
5nm W 
272150Z 16003KT 10SM CLR 32/09 A2997
KTRL 
8nm E 
272153Z AUTO 00000KT 10SM CLR 31/13 A2997 RMK AO2 SLP141 T03110128
KF46 
12nm N 
272155Z AUTO 00000KT 10SM CLR 30/13 A2997 RMK AO2 T03030131
KLNC 
18nm SW 
272155Z AUTO 09003KT 10SM CLR 31/11 A2997 RMK AO2 T03110109
TAF
KDAL 
22nm W 
271720Z 2718/2818 11005KT P6SM SKC FM281600 18016G26KT P6SM SKC
NOTAMs
Click for the latest NOTAMs
NOTAMs are issued by the DoD/FAA and will open in a separate window not controlled by AirNav.

 

 
 

Would you like to see your business listed on this page?

 If your business provides an interesting product or service to pilots, flight crews, aircraft, or users of the Smith Field Airport, you should consider listing it here.  To start the listing process, click on the button below
 
Add a business
 

Other Pages about Smith Field Airport

Update a link
 
Copyright © AirNav, LLC. All rights reserved. Privacy Policy  Contact